createdAt,value
2022-09-20T00:00:31.223Z,187.02
2022-09-20T00:01:31.362Z,185.66
2022-09-20T00:02:31.387Z,187.34
2022-09-20T00:03:31.479Z,187.24
2022-09-20T00:04:31.579Z,187.66
2022-09-20T00:05:31.672Z,187.87
2022-09-20T00:06:31.774Z,186.81
2022-09-20T00:07:31.818Z,187.13
2022-09-20T00:08:31.883Z,187.34
2022-09-20T00:09:32.024Z,186.81
2022-09-20T00:10:32.092Z,187.24
2022-09-20T00:11:32.120Z,187.98
2022-09-20T00:12:32.223Z,188.30
2022-09-20T00:13:32.285Z,186.50
2022-09-20T00:14:32.364Z,186.81
2022-09-20T00:15:32.489Z,185.87
2022-09-20T00:16:32.662Z,187.13
2022-09-20T00:17:32.624Z,186.50
2022-09-20T00:18:32.686Z,186.60
2022-09-20T00:19:32.780Z,185.24
2022-09-20T00:20:32.861Z,185.55
2022-09-20T00:21:32.952Z,186.60
2022-09-20T00:22:33.002Z,185.76
2022-09-20T00:23:33.122Z,185.87
2022-09-20T00:24:33.163Z,185.24
2022-09-20T00:25:33.304Z,185.98
2022-09-20T00:26:33.320Z,185.16
2022-09-20T00:27:33.446Z,186.18
2022-09-20T00:28:33.497Z,186.18
2022-09-20T00:29:33.582Z,183.74
2022-09-20T00:30:33.636Z,183.34
2022-09-20T00:31:33.770Z,182.35
2022-09-20T00:32:33.846Z,182.35
2022-09-20T00:33:33.945Z,182.15
2022-09-20T00:34:33.979Z,180.97
2022-09-20T00:35:34.096Z,180.78
2022-09-20T00:36:34.122Z,180.97
2022-09-20T00:37:34.215Z,181.76
2022-09-20T00:38:34.274Z,180.59
2022-09-20T00:39:34.367Z,180.20
2022-09-20T00:40:34.498Z,182.55
2022-09-20T00:41:34.532Z,180.39
2022-09-20T00:42:34.635Z,180.97
2022-09-20T00:43:34.681Z,181.95
2022-09-20T00:44:34.760Z,180.59
2022-09-20T00:45:34.874Z,181.76
2022-09-20T00:46:34.913Z,182.15
2022-09-20T00:47:35.012Z,181.76
2022-09-20T00:48:35.061Z,180.78
2022-09-20T00:49:35.185Z,182.74
2022-09-20T00:50:35.220Z,183.54
2022-09-20T00:51:35.331Z,182.94
2022-09-20T00:52:35.384Z,182.74
2022-09-20T00:53:35.480Z,182.94
2022-09-20T00:54:35.556Z,183.54
2022-09-20T00:55:35.649Z,183.94
2022-09-20T00:56:35.714Z,183.94
2022-09-20T00:57:35.810Z,183.74
2022-09-20T00:58:35.938Z,184.15
2022-09-20T00:59:35.949Z,183.94
2022-09-20T01:00:36.047Z,184.96
2022-09-20T01:01:36.201Z,184.35
2022-09-20T01:02:36.255Z,184.96
2022-09-20T01:03:36.268Z,183.94
2022-09-20T01:04:36.364Z,184.55
2022-09-20T01:05:36.410Z,185.14
2022-09-20T01:06:36.504Z,184.96
2022-09-20T01:07:36.581Z,184.75
2022-09-20T01:08:36.675Z,185.57
2022-09-20T01:09:36.751Z,186.18
2022-09-20T01:10:36.819Z,185.77
2022-09-20T01:11:36.875Z,186.18
2022-09-20T01:12:36.957Z,185.66
2022-09-20T01:13:37.057Z,185.55
2022-09-20T01:14:37.125Z,185.98
2022-09-20T01:15:37.173Z,185.35
2022-09-20T01:16:37.411Z,186.18
2022-09-20T01:17:37.363Z,186.18
2022-09-20T01:18:37.425Z,186.18
2022-09-20T01:19:37.507Z,185.55
2022-09-20T01:20:37.552Z,185.76
2022-09-20T01:21:37.624Z,185.76
2022-09-20T01:22:37.706Z,185.45
2022-09-20T01:23:37.844Z,184.96
2022-09-20T01:24:37.877Z,185.24
2022-09-20T01:25:37.951Z,186.29
2022-09-20T01:26:38.006Z,185.66
2022-09-20T01:27:38.086Z,185.35
2022-09-20T01:28:38.176Z,185.97
2022-09-20T01:29:38.295Z,185.76
2022-09-20T01:30:38.344Z,186.18
2022-09-20T01:31:38.476Z,186.18
2022-09-20T01:32:38.577Z,185.55
2022-09-20T01:33:38.587Z,186.08
2022-09-20T01:34:38.686Z,185.76
2022-09-20T01:35:38.761Z,186.29
2022-09-20T01:36:38.896Z,187.55
2022-09-20T01:37:38.898Z,186.60
2022-09-20T01:38:38.994Z,185.87
2022-09-20T01:39:39.049Z,186.39
2022-09-20T01:40:39.206Z,187.13
2022-09-20T01:41:39.228Z,187.77
2022-09-20T01:42:39.335Z,187.45
2022-09-20T01:43:39.387Z,185.66
2022-09-20T01:44:39.467Z,187.24
2022-09-20T01:45:39.620Z,187.13
2022-09-20T01:46:39.651Z,187.98
2022-09-20T01:47:39.708Z,186.92
2022-09-20T01:48:39.791Z,187.02
2022-09-20T01:49:39.897Z,187.55
2022-09-20T01:50:39.942Z,187.02
2022-09-20T01:51:40.025Z,187.45
2022-09-20T01:52:40.099Z,187.02
2022-09-20T01:53:40.198Z,187.66
2022-09-20T01:54:40.242Z,187.45
2022-09-20T01:55:40.328Z,188.52
2022-09-20T01:56:40.405Z,188.52
2022-09-20T01:57:40.466Z,188.09
2022-09-20T01:58:40.619Z,187.87
2022-09-20T01:59:40.621Z,188.52
2022-09-20T02:00:40.692Z,188.30
2022-09-20T02:01:40.823Z,188.19
2022-09-20T02:02:40.944Z,187.98
2022-09-20T02:03:40.959Z,189.16
2022-09-20T02:04:41.018Z,189.27
2022-09-20T02:05:41.140Z,188.62
2022-09-20T02:06:41.184Z,189.82
2022-09-20T02:07:41.268Z,189.60
2022-09-20T02:08:41.384Z,189.27
2022-09-20T02:09:41.438Z,189.60
2022-09-20T02:10:41.540Z,189.71
2022-09-20T02:11:41.616Z,188.84
2022-09-20T02:12:41.674Z,190.25
2022-09-20T02:13:41.767Z,190.14
2022-09-20T02:14:41.833Z,189.38
2022-09-20T02:15:41.923Z,189.71
2022-09-20T02:16:41.985Z,188.84
2022-09-20T02:17:42.043Z,190.25
2022-09-20T02:18:42.134Z,190.69
2022-09-20T02:19:42.206Z,189.27
2022-09-20T02:20:42.328Z,190.03
2022-09-20T02:21:42.375Z,190.25
2022-09-20T02:22:42.482Z,190.03
2022-09-20T02:23:42.528Z,190.36
2022-09-20T02:24:42.582Z,190.69
2022-09-20T02:25:42.672Z,190.58
2022-09-20T02:26:42.792Z,191.02
2022-09-20T02:27:42.827Z,191.35
2022-09-20T02:28:42.893Z,191.57
2022-09-20T02:29:43.000Z,191.69
2022-09-20T02:30:43.060Z,190.69
2022-09-20T02:31:43.168Z,190.69
2022-09-20T02:32:43.236Z,190.80
2022-09-20T02:33:43.284Z,190.36
2022-09-20T02:34:43.370Z,192.36
2022-09-20T02:35:43.466Z,191.24
2022-09-20T02:36:43.534Z,191.24
2022-09-20T02:37:43.605Z,191.46
2022-09-20T02:38:43.686Z,191.69
2022-09-20T02:39:43.774Z,192.47
2022-09-20T02:40:43.920Z,190.69
2022-09-20T02:41:43.921Z,191.57
2022-09-20T02:42:44.006Z,191.35
2022-09-20T02:43:44.129Z,190.58
2022-09-20T02:44:44.191Z,191.24
2022-09-20T02:45:44.321Z,191.80
2022-09-20T02:46:44.332Z,192.13
2022-09-20T02:47:44.394Z,191.80
2022-09-20T02:48:44.479Z,192.69
2022-09-20T02:49:44.531Z,191.57
2022-09-20T02:50:44.613Z,193.03
2022-09-20T02:51:44.697Z,192.47
2022-09-20T02:52:44.780Z,192.13
2022-09-20T02:53:44.855Z,192.13
2022-09-20T02:54:44.931Z,192.92
2022-09-20T02:55:45.003Z,191.69
2022-09-20T02:56:45.088Z,191.91
2022-09-20T02:57:45.171Z,191.69
2022-09-20T02:58:45.262Z,192.36
2022-09-20T02:59:45.306Z,192.58
2022-09-20T03:00:45.556Z,193.26
2022-09-20T03:01:45.502Z,193.71
2022-09-20T03:02:45.650Z,192.24
2022-09-20T03:03:45.607Z,192.13
2022-09-20T03:04:45.691Z,192.80
2022-09-20T03:05:45.759Z,193.48
2022-09-20T03:06:45.847Z,193.37
2022-09-20T03:07:45.950Z,192.69
2022-09-20T03:08:45.985Z,193.82
2022-09-20T03:09:46.087Z,192.36
2022-09-20T03:10:46.171Z,192.58
2022-09-20T03:11:46.216Z,193.60
2022-09-20T03:12:46.320Z,194.16
2022-09-20T03:13:46.375Z,192.80
2022-09-20T03:14:46.469Z,193.03
2022-09-20T03:15:46.550Z,193.14
2022-09-20T03:16:51.921Z,193.03
2022-09-20T03:17:46.705Z,194.28
2022-09-20T03:18:46.814Z,192.69
2022-09-20T03:19:46.853Z,192.58
2022-09-20T03:20:46.927Z,194.39
2022-09-20T03:21:46.998Z,193.14
2022-09-20T03:22:47.109Z,193.37
2022-09-20T03:23:47.149Z,193.60
2022-09-20T03:24:47.225Z,192.92
2022-09-20T03:25:47.319Z,194.39
2022-09-20T03:26:47.402Z,194.16
2022-09-20T03:27:47.602Z,193.37
2022-09-20T03:28:47.566Z,193.60
2022-09-20T03:29:47.639Z,193.37
2022-09-20T03:30:47.723Z,193.14
2022-09-20T03:31:47.926Z,193.03
2022-09-20T03:32:47.929Z,194.05
2022-09-20T03:33:47.989Z,193.48
2022-09-20T03:34:48.098Z,192.92
2022-09-20T03:35:48.148Z,193.48
2022-09-20T03:36:48.204Z,193.48
2022-09-20T03:37:48.300Z,194.05
2022-09-20T03:38:48.362Z,193.14
2022-09-20T03:39:48.463Z,193.82
2022-09-20T03:40:48.588Z,193.26
2022-09-20T03:41:48.609Z,192.92
2022-09-20T03:42:48.714Z,194.28
2022-09-20T03:43:48.780Z,194.05
2022-09-20T03:44:48.872Z,194.05
2022-09-20T03:45:49.077Z,194.28
2022-09-20T03:46:49.020Z,193.93
2022-09-20T03:47:49.107Z,194.39
2022-09-20T03:48:49.174Z,194.05
2022-09-20T03:49:49.262Z,194.62
2022-09-20T03:50:49.319Z,193.60
2022-09-20T03:51:49.395Z,194.39
2022-09-20T03:52:49.476Z,193.82
2022-09-20T03:53:49.551Z,194.16
2022-09-20T03:54:49.610Z,194.51
2022-09-20T03:55:49.700Z,193.82
2022-09-20T03:56:49.776Z,193.60
2022-09-20T03:57:49.819Z,194.96
2022-09-20T03:58:49.922Z,195.43
2022-09-20T03:59:49.959Z,194.05
2022-09-20T04:00:50.064Z,194.74
2022-09-20T04:01:50.215Z,194.51
2022-09-20T04:02:50.290Z,194.05
2022-09-20T04:03:50.264Z,193.93
2022-09-20T04:04:50.401Z,195.31
2022-09-20T04:05:50.417Z,193.93
2022-09-20T04:06:50.501Z,195.20
2022-09-20T04:07:50.572Z,195.20
2022-09-20T04:08:50.700Z,196.12
2022-09-20T04:09:50.728Z,194.05
2022-09-20T04:10:50.798Z,193.60
2022-09-20T04:11:50.885Z,194.51
2022-09-20T04:12:50.979Z,194.28
2022-09-20T04:13:51.046Z,194.16
2022-09-20T04:14:51.131Z,194.51
2022-09-20T04:15:51.255Z,193.93
2022-09-20T04:16:51.406Z,194.96
2022-09-20T04:17:51.367Z,193.37
2022-09-20T04:18:51.430Z,195.08
2022-09-20T04:19:51.541Z,193.82
2022-09-20T04:20:51.606Z,193.71
2022-09-20T04:21:51.649Z,194.74
2022-09-20T04:22:51.765Z,194.28
2022-09-20T04:23:51.824Z,194.85
2022-09-20T04:24:51.901Z,193.14
2022-09-20T04:25:51.968Z,193.71
2022-09-20T04:26:52.070Z,193.48
2022-09-20T04:27:52.141Z,192.69
2022-09-20T04:28:52.225Z,194.16
2022-09-20T04:29:52.307Z,193.26
2022-09-20T04:30:52.392Z,193.03
2022-09-20T04:31:54.235Z,193.03
2022-09-20T04:32:52.556Z,193.60
2022-09-20T04:33:52.642Z,193.37
2022-09-20T04:34:52.722Z,194.39
2022-09-20T04:35:52.802Z,192.92
2022-09-20T04:36:52.896Z,194.16
2022-09-20T04:37:52.946Z,193.60
2022-09-20T04:38:53.118Z,193.71
2022-09-20T04:39:53.086Z,193.82
2022-09-20T04:40:53.170Z,194.85
2022-09-20T04:41:53.249Z,193.82
2022-09-20T04:42:53.331Z,194.85
2022-09-20T04:43:53.426Z,193.93
2022-09-20T04:44:53.480Z,193.82
2022-09-20T04:45:53.649Z,192.69
2022-09-20T04:46:56.031Z,193.60
2022-09-20T04:47:53.711Z,193.26
2022-09-20T04:48:53.834Z,193.82
2022-09-20T04:49:53.855Z,194.28
2022-09-20T04:50:53.942Z,194.39
2022-09-20T04:51:54.032Z,194.85
2022-09-20T04:52:54.104Z,192.80
2022-09-20T04:53:54.183Z,194.51
2022-09-20T04:54:54.257Z,193.26
2022-09-20T04:55:54.326Z,193.93
2022-09-20T04:56:54.443Z,193.71
2022-09-20T04:57:54.479Z,194.74
2022-09-20T04:58:54.576Z,194.74
2022-09-20T04:59:54.632Z,194.74
2022-09-20T05:00:54.771Z,195.08
2022-09-20T05:01:54.870Z,193.82
2022-09-20T05:02:54.887Z,193.82
2022-09-20T05:03:54.971Z,194.51
2022-09-20T05:04:55.037Z,193.37
2022-09-20T05:05:55.117Z,195.20
2022-09-20T05:06:55.220Z,193.60
2022-09-20T05:07:55.260Z,193.93
2022-09-20T05:08:58.772Z,193.93
2022-09-20T05:09:55.436Z,194.28
2022-09-20T05:10:55.500Z,194.74
2022-09-20T05:11:55.587Z,194.05
2022-09-20T05:12:55.671Z,194.51
2022-09-20T05:13:55.763Z,195.66
2022-09-20T05:14:55.841Z,194.51
2022-09-20T05:15:55.910Z,194.74
2022-09-20T05:16:56.072Z,194.51
2022-09-20T05:17:56.077Z,195.08
2022-09-20T05:18:56.237Z,194.62
2022-09-20T05:19:56.201Z,195.77
2022-09-20T05:20:56.281Z,194.96
2022-09-20T05:21:56.361Z,194.39
2022-09-20T05:22:56.431Z,194.39
2022-09-20T05:23:56.502Z,195.54
2022-09-20T05:24:56.630Z,194.74
2022-09-20T05:25:56.691Z,194.74
2022-09-20T05:26:56.760Z,194.28
2022-09-20T05:27:56.839Z,194.96
2022-09-20T05:28:56.941Z,194.16
2022-09-20T05:29:57.002Z,195.77
2022-09-20T05:30:57.097Z,195.43
2022-09-20T05:31:57.183Z,194.62
2022-09-20T05:32:57.237Z,194.62
2022-09-20T05:33:57.311Z,195.66
2022-09-20T05:34:57.400Z,195.20
2022-09-20T05:35:57.488Z,194.28
2022-09-20T05:36:57.618Z,194.39
2022-09-20T05:37:57.621Z,194.51
2022-09-20T05:38:59.042Z,195.20
2022-09-20T05:39:57.826Z,194.62
2022-09-20T05:40:57.889Z,193.26
2022-09-20T05:41:57.949Z,194.74
2022-09-20T05:42:58.020Z,193.14
2022-09-20T05:43:58.087Z,193.26
2022-09-20T05:44:58.157Z,194.62
2022-09-20T05:45:58.262Z,195.20
2022-09-20T05:46:58.348Z,195.20
2022-09-20T05:47:58.387Z,193.26
2022-09-20T05:48:58.472Z,193.37
2022-09-20T05:49:58.554Z,193.03
2022-09-20T05:51:01.866Z,193.82
2022-09-20T05:51:58.763Z,195.66
2022-09-20T05:52:58.810Z,193.82
2022-09-20T05:53:58.901Z,192.92
2022-09-20T05:54:58.984Z,194.05
2022-09-20T05:55:59.092Z,193.82
2022-09-20T05:56:59.145Z,192.69
2022-09-20T05:57:59.228Z,193.37
2022-09-20T05:58:59.316Z,192.58
2022-09-20T05:59:59.386Z,193.82
2022-09-20T06:00:59.618Z,192.13
2022-09-20T06:01:59.623Z,192.92
2022-09-20T06:02:59.623Z,193.48
2022-09-20T06:03:59.709Z,193.26
2022-09-20T06:04:59.785Z,193.60
2022-09-20T06:05:59.907Z,193.37
2022-09-20T06:06:59.961Z,193.26
2022-09-20T06:08:00.047Z,192.02
2022-09-20T06:09:00.135Z,193.03
2022-09-20T06:10:00.271Z,193.71
2022-09-20T06:11:00.301Z,193.48
2022-09-20T06:12:00.418Z,193.71
2022-09-20T06:13:00.454Z,193.26
2022-09-20T06:14:00.513Z,192.69
2022-09-20T06:15:00.584Z,193.82
2022-09-20T06:16:00.680Z,192.24
2022-09-20T06:17:00.800Z,193.26
2022-09-20T06:18:00.842Z,193.48
2022-09-20T06:19:00.973Z,193.82
2022-09-20T06:20:01.006Z,193.93
2022-09-20T06:21:01.084Z,194.05
2022-09-20T06:22:03.734Z,193.14
2022-09-20T06:23:01.243Z,194.28
2022-09-20T06:24:01.332Z,193.14
2022-09-20T06:25:01.461Z,194.05
2022-09-20T06:26:01.479Z,193.82
2022-09-20T06:27:01.581Z,194.16
2022-09-20T06:28:01.684Z,194.85
2022-09-20T06:29:01.703Z,194.16
2022-09-20T06:30:01.814Z,193.93
2022-09-20T06:31:01.919Z,195.20
2022-09-20T06:32:02.004Z,194.05
2022-09-20T06:33:02.015Z,195.77
2022-09-20T06:34:02.111Z,195.08
2022-09-20T06:35:02.226Z,194.28
2022-09-20T06:36:02.271Z,193.93
2022-09-20T06:37:02.338Z,194.16
2022-09-20T06:38:02.432Z,194.39
2022-09-20T06:39:02.512Z,194.05
2022-09-20T06:40:02.668Z,194.51
2022-09-20T06:41:02.686Z,194.62
2022-09-20T06:42:02.829Z,195.08
2022-09-20T06:43:02.859Z,194.16
2022-09-20T06:44:02.931Z,194.62
2022-09-20T06:45:03.056Z,194.39
2022-09-20T06:46:03.237Z,193.26
2022-09-20T06:47:03.157Z,193.26
2022-09-20T06:48:03.232Z,193.26
2022-09-20T06:49:03.313Z,193.03
2022-09-20T06:50:03.397Z,194.62
2022-09-20T06:51:03.482Z,193.93
2022-09-20T06:52:03.554Z,193.26
2022-09-20T06:53:03.631Z,194.05
2022-09-20T06:54:03.702Z,193.37
2022-09-20T06:55:03.794Z,193.60
2022-09-20T06:56:03.871Z,194.16
2022-09-20T06:57:03.976Z,195.08
2022-09-20T06:58:04.014Z,191.69
2022-09-20T06:59:04.094Z,194.51
2022-09-20T07:00:04.183Z,193.93
2022-09-20T07:01:04.309Z,193.14
2022-09-20T07:02:04.411Z,195.20
2022-09-20T07:03:04.446Z,194.28
2022-09-20T07:04:04.538Z,193.71
2022-09-20T07:05:04.607Z,192.24
2022-09-20T07:06:04.685Z,193.48
2022-09-20T07:07:09.116Z,194.51
2022-09-20T07:08:04.869Z,194.74
2022-09-20T07:09:04.951Z,193.37
2022-09-20T07:10:05.049Z,193.93
2022-09-20T07:11:05.123Z,194.39
2022-09-20T07:12:05.214Z,194.05
2022-09-20T07:13:05.405Z,194.62
2022-09-20T07:14:05.433Z,193.82
2022-09-20T07:15:05.450Z,193.93
2022-09-20T07:16:05.707Z,194.28
2022-09-20T07:17:05.645Z,194.28
2022-09-20T07:18:05.681Z,195.54
2022-09-20T07:19:05.732Z,194.96
2022-09-20T07:20:05.818Z,195.20
2022-09-20T07:21:05.867Z,194.62
2022-09-20T07:22:05.980Z,194.85
2022-09-20T07:23:06.014Z,194.74
2022-09-20T07:24:06.103Z,196.24
2022-09-20T07:25:06.194Z,196.01
2022-09-20T07:26:06.289Z,196.94
2022-09-20T07:27:06.356Z,194.51
2022-09-20T07:28:06.447Z,196.01
2022-09-20T07:29:06.579Z,196.71
2022-09-20T07:30:06.593Z,195.31
2022-09-20T07:31:06.687Z,195.77
2022-09-20T07:32:06.765Z,196.24
2022-09-20T07:33:06.815Z,197.53
2022-09-20T07:34:06.921Z,196.24
2022-09-20T07:35:06.977Z,195.54
2022-09-20T07:36:07.035Z,195.54
2022-09-20T07:37:07.160Z,197.41
2022-09-20T07:38:07.200Z,195.66
2022-09-20T07:39:07.275Z,196.47
2022-09-20T07:40:07.399Z,197.29
2022-09-20T07:41:07.419Z,196.24
2022-09-20T07:42:07.490Z,197.29
2022-09-20T07:43:07.594Z,198.12
2022-09-20T07:44:07.652Z,197.53
2022-09-20T07:45:07.728Z,197.65
2022-09-20T07:46:07.816Z,198.24
2022-09-20T07:47:07.895Z,196.94
2022-09-20T07:48:07.963Z,197.65
2022-09-20T07:49:08.046Z,198.12
2022-09-20T07:50:08.124Z,199.55
2022-09-20T07:51:09.059Z,198.48
2022-09-20T07:52:08.318Z,198.24
2022-09-20T07:53:08.369Z,198.12
2022-09-20T07:54:08.470Z,198.00
2022-09-20T07:55:08.535Z,198.48
2022-09-20T07:56:08.610Z,198.24
2022-09-20T07:57:08.679Z,199.43
2022-09-20T07:58:08.774Z,198.48
2022-09-20T07:59:08.859Z,198.71
2022-09-20T08:00:08.934Z,199.31
2022-09-20T08:01:09.186Z,199.68
2022-09-20T08:02:09.130Z,199.80
2022-09-20T08:03:09.193Z,198.36
2022-09-20T08:04:09.303Z,199.80
2022-09-20T08:05:09.351Z,199.92
2022-09-20T08:06:09.486Z,200.40
2022-09-20T08:07:09.536Z,199.31
2022-09-20T08:08:09.611Z,200.28
2022-09-20T08:09:11.347Z,199.92
2022-09-20T08:10:09.759Z,198.95
2022-09-20T08:11:09.838Z,201.13
2022-09-20T08:14:10.091Z,200.65
2022-09-20T08:15:12.003Z,201.01
2022-09-20T08:16:10.218Z,200.52
2022-09-20T08:17:10.317Z,200.77
2022-09-20T08:18:10.368Z,201.01
2022-09-20T08:19:10.585Z,201.01
2022-09-20T08:20:10.537Z,201.75
2022-09-20T08:21:10.620Z,201.01
2022-09-20T08:22:10.704Z,202.37
2022-09-20T08:23:22.982Z,201.62
2022-09-20T08:24:10.878Z,201.99
2022-09-20T08:25:10.963Z,201.26
2022-09-20T08:26:11.052Z,201.99
2022-09-20T08:27:11.133Z,201.87
2022-09-20T08:28:11.215Z,201.62
2022-09-20T08:29:11.308Z,201.99
2022-09-20T08:30:11.410Z,202.37
2022-09-20T08:31:11.461Z,201.38
2022-09-20T08:32:11.559Z,202.37
2022-09-20T08:33:11.601Z,203.11
2022-09-20T08:34:11.726Z,202.37
2022-09-20T08:35:11.797Z,203.24
2022-09-20T08:36:11.888Z,202.12
2022-09-20T08:37:11.971Z,202.24
2022-09-20T08:40:12.236Z,203.24
2022-09-20T08:41:12.304Z,202.49
2022-09-20T08:42:12.372Z,204.24
2022-09-20T08:43:12.485Z,202.74
2022-09-20T08:44:12.529Z,202.74
2022-09-20T08:45:22.195Z,202.99
2022-09-20T08:46:12.726Z,205.13
2022-09-20T08:47:12.721Z,203.11
2022-09-20T08:48:14.363Z,203.24
2022-09-20T08:49:12.875Z,203.49
2022-09-20T08:50:17.571Z,202.99
2022-09-20T08:51:13.086Z,205.00
2022-09-20T08:52:13.121Z,204.75
2022-09-20T08:53:13.209Z,203.24
2022-09-20T08:54:13.290Z,203.11
2022-09-20T08:55:13.379Z,203.74
2022-09-20T08:56:13.462Z,202.99
2022-09-20T08:57:13.546Z,202.61
2022-09-20T08:58:13.635Z,203.11
2022-09-20T08:59:13.720Z,203.36
2022-09-20T09:00:13.791Z,202.37
2022-09-20T09:01:13.871Z,201.75
2022-09-20T09:02:14.081Z,201.01
2022-09-20T09:03:14.052Z,201.62
2022-09-20T09:04:14.088Z,200.40
2022-09-20T09:05:14.152Z,202.61
2022-09-20T09:06:18.289Z,200.28
2022-09-20T09:07:14.330Z,200.65
2022-09-20T09:08:14.401Z,201.62
2022-09-20T09:09:14.476Z,201.62
2022-09-20T09:10:14.560Z,200.16
2022-09-20T09:11:14.636Z,202.12
2022-09-20T09:12:14.711Z,200.28
2022-09-20T09:13:14.805Z,200.16
2022-09-20T09:14:14.862Z,199.55
2022-09-20T09:15:17.571Z,201.50
2022-09-20T09:16:15.103Z,199.31
2022-09-20T09:17:15.098Z,200.04
2022-09-20T09:18:15.175Z,199.19
2022-09-20T09:19:15.254Z,200.52
2022-09-20T09:20:15.351Z,199.92
2022-09-20T09:21:15.390Z,200.52
2022-09-20T09:22:15.473Z,200.40
2022-09-20T09:23:15.573Z,199.68
2022-09-20T09:24:15.624Z,200.28
2022-09-20T09:25:15.722Z,198.71
2022-09-20T09:26:15.781Z,200.28
2022-09-20T09:27:15.848Z,199.31
2022-09-20T09:28:15.934Z,199.31
2022-09-20T09:29:16.044Z,201.38
2022-09-20T09:30:16.086Z,199.55
2022-09-20T09:31:16.234Z,199.55
2022-09-20T09:32:16.256Z,199.43
2022-09-20T09:33:16.347Z,200.28
2022-09-20T09:34:16.406Z,199.80
2022-09-20T09:35:16.492Z,199.80
2022-09-20T09:36:16.582Z,200.65
2022-09-20T09:37:16.674Z,199.92
2022-09-20T09:38:16.757Z,200.77
2022-09-20T09:39:16.846Z,201.50
2022-09-20T09:40:17.101Z,200.40
2022-09-20T09:41:17.016Z,199.92
2022-09-20T09:42:17.110Z,201.50
2022-09-20T09:43:17.179Z,200.52
2022-09-20T09:44:17.256Z,201.13
2022-09-20T09:45:17.343Z,201.01
2022-09-20T09:46:17.484Z,201.26
2022-09-20T09:47:17.497Z,202.12
2022-09-20T09:48:17.555Z,201.87
2022-09-20T09:49:17.618Z,200.89
2022-09-20T09:50:17.718Z,202.74
2022-09-20T09:51:17.795Z,201.38
2022-09-20T09:52:17.890Z,201.50
2022-09-20T09:53:17.950Z,200.89
2022-09-20T09:54:18.063Z,202.61
2022-09-20T09:55:18.119Z,202.24
2022-09-20T09:56:18.169Z,201.13
2022-09-20T09:57:18.277Z,201.87
2022-09-20T09:58:18.351Z,202.12
2022-09-20T09:59:18.415Z,201.13
2022-09-20T10:00:21.885Z,200.77
2022-09-20T10:01:18.652Z,202.49
2022-09-20T10:02:18.739Z,202.12
2022-09-20T10:03:18.740Z,201.26
2022-09-20T10:04:18.818Z,201.26
2022-09-20T10:05:18.873Z,202.24
2022-09-20T10:06:18.961Z,201.50
2022-09-20T10:07:19.053Z,201.99
2022-09-20T10:08:19.143Z,202.24
2022-09-20T10:09:19.212Z,201.75
2022-09-20T10:10:19.318Z,201.38
2022-09-20T10:11:19.384Z,201.26
2022-09-20T10:12:19.467Z,201.01
2022-09-20T10:13:19.542Z,201.13
2022-09-20T10:14:19.630Z,200.65
2022-09-20T10:15:19.751Z,201.87
2022-09-20T10:16:19.888Z,201.75
2022-09-20T10:17:19.865Z,200.77
2022-09-20T10:18:19.953Z,201.26
2022-09-20T10:19:22.705Z,202.24
2022-09-20T10:20:20.124Z,200.65
2022-09-20T10:21:20.199Z,200.16
2022-09-20T10:22:20.294Z,200.65
2022-09-20T10:23:51.410Z,201.50
2022-09-20T10:24:20.405Z,201.75
2022-09-20T10:25:20.483Z,200.89
2022-09-20T10:26:20.563Z,200.89
2022-09-20T10:27:20.841Z,200.89
2022-09-20T10:28:20.701Z,199.92
2022-09-20T10:29:20.795Z,200.40
2022-09-20T10:30:20.889Z,200.28
2022-09-20T10:31:25.511Z,200.89
2022-09-20T10:32:21.057Z,200.28
2022-09-20T10:33:21.206Z,200.77
2022-09-20T10:34:21.201Z,200.40
2022-09-20T10:35:21.278Z,199.92
2022-09-20T10:36:21.349Z,200.52
2022-09-20T10:37:21.457Z,199.55
2022-09-20T10:38:21.495Z,200.52
2022-09-20T10:39:21.644Z,200.52
2022-09-20T10:40:21.734Z,198.48
2022-09-20T10:41:21.732Z,198.60
2022-09-20T10:42:21.825Z,199.43
2022-09-20T10:43:21.907Z,199.19
2022-09-20T10:44:21.948Z,199.92
2022-09-20T10:45:53.325Z,199.55
2022-09-20T10:46:31.811Z,199.19
2022-09-20T10:47:22.271Z,199.80
2022-09-20T10:48:22.333Z,198.48
2022-09-20T10:49:22.331Z,199.07
2022-09-20T10:50:22.418Z,199.19
2022-09-20T10:51:22.483Z,198.48
2022-09-20T10:52:22.564Z,197.65
2022-09-20T10:53:22.624Z,199.43
2022-09-20T10:54:22.726Z,198.84
2022-09-20T10:55:22.781Z,199.43
2022-09-20T10:56:22.859Z,199.19
2022-09-20T10:57:22.960Z,199.19
2022-09-20T10:58:23.019Z,199.19
2022-09-20T10:59:23.075Z,198.48
2022-09-20T11:00:23.171Z,198.48
2022-09-20T11:01:23.299Z,199.55
2022-09-20T11:02:23.439Z,197.76
2022-09-20T11:03:23.390Z,198.71
2022-09-20T11:04:23.461Z,199.43
2022-09-20T11:05:23.542Z,199.55
2022-09-20T11:06:23.618Z,199.07
2022-09-20T11:07:23.704Z,198.84
2022-09-20T11:08:23.795Z,198.95
2022-09-20T11:09:23.887Z,199.19
2022-09-20T11:10:23.924Z,199.80
2022-09-20T11:11:23.998Z,199.43
2022-09-20T11:12:24.098Z,200.04
2022-09-20T11:13:24.177Z,199.80
2022-09-20T11:14:24.251Z,198.71
2022-09-20T11:15:24.361Z,199.80
2022-09-20T11:16:24.467Z,198.60
2022-09-20T11:17:24.533Z,198.36
2022-09-20T11:18:24.624Z,199.43
2022-09-20T11:19:24.657Z,199.55
2022-09-20T11:20:24.734Z,198.60
2022-09-20T11:21:24.812Z,199.43
2022-09-20T11:22:24.944Z,199.31
2022-09-20T11:23:24.990Z,199.07
2022-09-20T11:24:25.145Z,200.65
2022-09-20T11:25:29.470Z,200.40
2022-09-20T11:26:25.223Z,199.31
2022-09-20T11:27:25.313Z,199.80
2022-09-20T11:28:25.397Z,201.01
2022-09-20T11:29:25.483Z,201.13
2022-09-20T11:30:25.564Z,200.28
2022-09-20T11:31:25.657Z,200.40
2022-09-20T11:32:25.730Z,200.89
2022-09-20T11:33:25.820Z,200.04
2022-09-20T11:34:25.895Z,199.80
2022-09-20T11:35:25.984Z,201.13
2022-09-20T11:36:26.107Z,200.77
2022-09-20T11:37:26.174Z,200.52
2022-09-20T11:38:26.263Z,201.26
2022-09-20T11:39:26.322Z,200.28
2022-09-20T11:40:26.434Z,201.13
2022-09-20T11:41:26.483Z,201.01
2022-09-20T11:42:26.524Z,200.89
2022-09-20T11:43:26.608Z,202.12
2022-09-20T11:44:26.708Z,201.50
2022-09-20T11:45:28.568Z,202.24
2022-09-20T11:46:26.905Z,201.38
2022-09-20T11:47:52.810Z,201.75
2022-09-20T11:48:27.031Z,202.12
2022-09-20T11:49:27.102Z,200.28
2022-09-20T11:50:27.175Z,200.65
2022-09-20T11:51:27.240Z,201.13
2022-09-20T11:52:27.283Z,201.75
2022-09-20T11:53:27.380Z,201.50
2022-09-20T11:54:27.452Z,201.26
2022-09-20T11:55:27.546Z,201.99
2022-09-20T11:56:27.652Z,201.13
2022-09-20T11:57:27.710Z,202.37
2022-09-20T11:58:27.790Z,201.99
2022-09-20T11:59:27.856Z,201.75
2022-09-20T12:00:27.945Z,201.99
2022-09-20T12:01:28.732Z,201.62
2022-09-20T12:02:28.268Z,202.37
2022-09-20T12:03:28.249Z,200.52
2022-09-20T12:04:32.855Z,201.87
2022-09-20T12:05:28.349Z,202.61
2022-09-20T12:06:28.423Z,202.37
2022-09-20T12:07:28.517Z,202.37
2022-09-20T12:08:28.562Z,203.24
2022-09-20T12:09:28.643Z,201.75
2022-09-20T12:10:28.746Z,203.11
2022-09-20T12:11:28.901Z,202.37
2022-09-20T12:12:28.875Z,202.24
2022-09-20T12:13:28.963Z,203.99
2022-09-20T12:14:29.051Z,203.86
2022-09-20T12:15:29.122Z,203.11
2022-09-20T12:16:29.238Z,202.86
2022-09-20T12:17:29.295Z,203.86
2022-09-20T12:18:29.437Z,202.37
2022-09-20T12:19:29.462Z,203.86
2022-09-20T12:20:29.515Z,203.11
2022-09-20T12:21:29.602Z,202.86
2022-09-20T12:22:29.660Z,203.99
2022-09-20T12:23:29.750Z,202.86
2022-09-20T12:24:29.814Z,202.37
2022-09-20T12:25:29.910Z,204.37
2022-09-20T12:26:29.978Z,203.74
2022-09-20T12:27:30.072Z,203.61
2022-09-20T12:28:30.133Z,203.99
2022-09-20T12:29:30.210Z,204.75
2022-09-20T12:30:30.305Z,203.49
2022-09-20T12:31:30.390Z,204.75
2022-09-20T12:32:30.432Z,203.99
2022-09-20T12:33:30.529Z,204.49